createdAt,value
2023-04-18T00:00:58.657Z,92.13
2023-04-18T00:03:27.514Z,89.39
2023-04-18T00:05:55.839Z,88.25
2023-04-18T00:08:23.663Z,88.74
2023-04-18T00:10:51.631Z,89.54
2023-04-18T00:13:19.791Z,89.01
2023-04-18T00:15:47.426Z,90.06
2023-04-18T00:18:15.513Z,89.78
2023-04-18T00:20:43.382Z,90.43
2023-04-18T00:23:12.164Z,91.87
2023-04-18T00:25:41.457Z,91.36
2023-04-18T00:28:09.392Z,93.55
2023-04-18T00:30:37.230Z,91.45
2023-04-18T00:33:05.600Z,90.31
2023-04-18T00:35:33.223Z,88.14
2023-04-18T00:38:00.936Z,87.65
2023-04-18T00:40:28.993Z,87.44
2023-04-18T00:42:56.955Z,88.19
2023-04-18T00:45:24.557Z,88.28
2023-04-18T00:47:52.519Z,88.16
2023-04-18T00:50:20.352Z,89.05
2023-04-18T00:52:48.138Z,89.02
2023-04-18T00:55:16.582Z,88.11
2023-04-18T00:57:44.616Z,88.26
2023-04-18T01:00:12.834Z,88.29
2023-04-18T01:02:41.337Z,87.33
2023-04-18T01:05:09.209Z,87.87
2023-04-18T01:07:38.730Z,88.55
2023-04-18T01:10:08.140Z,89.52
2023-04-18T01:12:35.866Z,87.65
2023-04-18T01:15:04.896Z,87.82
2023-04-18T01:17:32.960Z,87.31
2023-04-18T01:20:01.059Z,87.37
2023-04-18T01:22:28.953Z,87.04
2023-04-18T01:24:57.458Z,87.36
2023-04-18T01:27:25.172Z,87.55
2023-04-18T01:29:53.917Z,87.89
2023-04-18T01:32:22.145Z,87.24
2023-04-18T01:34:49.846Z,87.34
2023-04-18T01:37:17.480Z,92.50
2023-04-18T01:39:45.507Z,90.33
2023-04-18T01:42:13.147Z,88.51
2023-04-18T01:44:40.750Z,87.97
2023-04-18T01:47:08.708Z,87.90
2023-04-18T01:49:36.294Z,87.36
2023-04-18T01:52:04.059Z,87.86
2023-04-18T01:54:32.117Z,87.41
2023-04-18T01:56:59.670Z,86.65
2023-04-18T01:59:27.457Z,88.16
2023-04-18T02:01:55.668Z,88.39
2023-04-18T02:04:25.100Z,88.45
2023-04-18T02:06:52.859Z,88.66
2023-04-18T02:09:21.203Z,88.63
2023-04-18T02:11:49.660Z,88.82
2023-04-18T02:14:17.815Z,89.32
2023-04-18T02:16:45.878Z,90.20
2023-04-18T02:19:13.553Z,91.04
2023-04-18T02:21:43.402Z,91.14
2023-04-18T02:24:11.553Z,92.59
2023-04-18T02:26:39.583Z,93.02
2023-04-18T02:29:07.588Z,91.57
2023-04-18T02:31:37.645Z,92.08
2023-04-18T02:34:07.783Z,92.56
2023-04-18T02:36:35.726Z,92.77
2023-04-18T02:39:03.830Z,92.86
2023-04-18T02:41:31.594Z,92.75
2023-04-18T02:43:59.724Z,92.79
2023-04-18T02:46:27.499Z,91.93
2023-04-18T02:48:55.541Z,91.33
2023-04-18T02:51:23.804Z,90.72
2023-04-18T02:53:51.820Z,91.29
2023-04-18T02:56:20.510Z,90.37
2023-04-18T02:58:50.557Z,89.92
2023-04-18T03:01:20.277Z,89.99
2023-04-18T03:03:48.969Z,89.56
2023-04-18T03:06:17.544Z,90.36
2023-04-18T03:08:45.553Z,89.73
2023-04-18T03:11:14.476Z,90.38
2023-04-18T03:13:42.673Z,89.56
2023-04-18T03:16:10.521Z,89.08
2023-04-18T03:18:38.556Z,89.33
2023-04-18T03:21:06.654Z,88.87
2023-04-18T03:23:36.154Z,89.14
2023-04-18T03:26:06.028Z,88.24
2023-04-18T03:28:35.079Z,88.38
2023-04-18T03:31:02.949Z,88.55
2023-04-18T03:33:32.193Z,87.70
2023-04-18T03:36:01.273Z,88.23
2023-04-18T03:38:29.196Z,87.21
2023-04-18T03:40:57.340Z,87.71
2023-04-18T03:43:25.521Z,88.11
2023-04-18T03:45:53.300Z,87.75
2023-04-18T03:48:21.103Z,86.90
2023-04-18T03:50:49.847Z,87.06
2023-04-18T03:53:18.012Z,87.65
2023-04-18T03:55:45.768Z,87.01
2023-04-18T03:58:14.545Z,86.14
2023-04-18T04:00:42.402Z,86.48
2023-04-18T04:03:10.629Z,85.93
2023-04-18T04:05:38.352Z,85.90
2023-04-18T04:08:06.297Z,85.91
2023-04-18T04:10:34.710Z,86.33
2023-04-18T04:13:02.680Z,86.81
2023-04-18T04:15:30.574Z,86.28
2023-04-18T04:17:59.109Z,85.92
2023-04-18T04:20:27.226Z,85.71
2023-04-18T04:22:55.735Z,85.54
2023-04-18T04:25:27.052Z,85.69
2023-04-18T04:27:54.863Z,85.02
2023-04-18T04:30:22.921Z,85.79
2023-04-18T04:32:50.932Z,84.77
2023-04-18T04:35:18.822Z,83.89
2023-04-18T04:37:47.084Z,83.17
2023-04-18T04:40:16.281Z,83.05
2023-04-18T04:42:44.341Z,82.88
2023-04-18T04:45:12.533Z,82.42
2023-04-18T04:47:40.185Z,82.99
2023-04-18T04:50:08.367Z,82.82
2023-04-18T04:52:36.501Z,81.79
2023-04-18T04:55:04.371Z,82.52
2023-04-18T04:57:32.179Z,82.22
2023-04-18T05:00:01.132Z,81.85
2023-04-18T05:02:29.134Z,80.37
2023-04-18T05:04:57.412Z,81.40
2023-04-18T05:07:25.491Z,80.17
2023-04-18T05:09:53.321Z,79.77
2023-04-18T05:12:21.141Z,79.92
2023-04-18T05:14:49.164Z,80.15
2023-04-18T05:17:17.032Z,80.36
2023-04-18T05:19:44.843Z,80.28
2023-04-18T05:22:12.934Z,79.49
2023-04-18T05:24:40.808Z,79.74
2023-04-18T05:27:08.604Z,79.81
2023-04-18T05:29:36.684Z,79.04
2023-04-18T05:32:04.601Z,80.05
2023-04-18T05:34:33.206Z,79.85
2023-04-18T05:37:01.484Z,78.95
2023-04-18T05:39:29.380Z,78.75
2023-04-18T05:41:57.598Z,78.08
2023-04-18T05:44:25.670Z,78.05
2023-04-18T05:46:53.380Z,78.60
2023-04-18T05:49:21.256Z,78.50
2023-04-18T05:51:49.243Z,78.37
2023-04-18T05:54:17.049Z,77.57
2023-04-18T05:56:44.862Z,77.15
2023-04-18T05:59:13.394Z,76.75
2023-04-18T06:01:41.014Z,77.02
2023-04-18T06:04:09.704Z,76.03
2023-04-18T06:06:37.524Z,76.16
2023-04-18T06:09:05.159Z,75.09
2023-04-18T06:11:33.152Z,74.54
2023-04-18T06:14:00.880Z,74.58
2023-04-18T06:16:28.751Z,73.88
2023-04-18T06:18:57.873Z,73.99
2023-04-18T06:21:27.364Z,74.08
2023-04-18T06:23:55.115Z,72.72
2023-04-18T06:26:23.100Z,72.22
2023-04-18T06:28:50.737Z,72.50
2023-04-18T06:31:18.539Z,72.35
2023-04-18T06:33:46.677Z,72.21
2023-04-18T06:36:14.405Z,70.82
2023-04-18T06:38:42.103Z,72.11
2023-04-18T06:41:10.240Z,69.93
2023-04-18T06:43:37.854Z,69.24
2023-04-18T06:46:05.748Z,68.37
2023-04-18T06:48:33.863Z,68.39
2023-04-18T06:51:01.859Z,66.27
2023-04-18T06:53:29.744Z,66.67
2023-04-18T06:55:58.005Z,65.74
2023-04-18T06:58:25.777Z,65.31
2023-04-18T07:00:53.467Z,64.64
2023-04-18T07:03:21.524Z,65.67
2023-04-18T07:05:49.512Z,62.71
2023-04-18T07:08:17.226Z,64.29
2023-04-18T07:10:45.098Z,63.88
2023-04-18T07:13:12.687Z,62.60
2023-04-18T07:15:40.435Z,63.65
2023-04-18T07:18:08.652Z,63.75
2023-04-18T07:20:36.371Z,62.80
2023-04-18T07:23:04.047Z,61.34
2023-04-18T07:25:32.246Z,61.42
2023-04-18T07:27:59.829Z,59.75
2023-04-18T07:30:27.487Z,58.87
2023-04-18T07:32:55.681Z,59.05
2023-04-18T07:35:23.603Z,57.05
2023-04-18T07:37:53.174Z,58.47
2023-04-18T07:40:21.740Z,58.76
2023-04-18T07:42:49.277Z,60.05
2023-04-18T07:45:16.924Z,58.07
2023-04-18T07:47:44.932Z,58.04
2023-04-18T07:50:12.769Z,59.77
2023-04-18T07:52:40.404Z,59.43
2023-04-18T07:55:08.738Z,58.71
2023-04-18T07:57:36.401Z,58.71
2023-04-18T08:00:04.854Z,58.36
2023-04-18T08:02:40.405Z,60.30
2023-04-18T08:05:09.336Z,55.49
2023-04-18T08:07:37.105Z,57.00
2023-04-18T08:10:05.243Z,55.36
2023-04-18T08:12:33.244Z,56.87
2023-04-18T08:15:00.777Z,55.42
2023-04-18T08:17:28.374Z,56.07
2023-04-18T08:19:56.543Z,53.81
2023-04-18T08:22:24.108Z,50.75
2023-04-18T08:27:25.437Z,50.38
2023-04-18T08:29:53.224Z,48.52
2023-04-18T08:32:21.025Z,46.58
2023-04-18T08:34:48.958Z,48.74
2023-04-18T08:37:16.570Z,48.86
2023-04-18T08:39:44.209Z,48.45
2023-04-18T08:42:22.837Z,48.70
2023-04-18T08:44:50.541Z,49.25
2023-04-18T08:47:18.580Z,49.04
2023-04-18T08:49:46.206Z,50.03
2023-04-18T08:52:14.608Z,48.36
2023-04-18T08:54:43.161Z,49.78
2023-04-18T08:57:11.807Z,49.71
2023-04-18T08:59:39.534Z,48.61
2023-04-18T09:02:07.522Z,50.21
2023-04-18T09:04:38.015Z,48.25
2023-04-18T09:07:07.590Z,48.26
2023-04-18T09:09:51.881Z,48.30
2023-04-18T09:12:24.087Z,47.77
2023-04-18T09:14:57.053Z,45.40
2023-04-18T09:17:36.949Z,41.87
2023-04-18T09:20:06.095Z,43.99
2023-04-18T09:22:50.874Z,45.55
2023-04-18T09:25:30.189Z,45.35
2023-04-18T09:27:58.279Z,43.28
2023-04-18T09:30:40.584Z,44.95
2023-04-18T09:33:09.748Z,43.59
2023-04-18T09:35:37.985Z,43.25
2023-04-18T09:38:06.189Z,40.81
2023-04-18T09:40:33.929Z,42.21
2023-04-18T09:43:17.630Z,43.30
2023-04-18T09:45:47.119Z,42.06
2023-04-18T09:48:15.158Z,42.86
2023-04-18T09:50:42.949Z,41.81
2023-04-18T09:53:11.808Z,41.98
2023-04-18T09:55:39.830Z,40.12
2023-04-18T09:58:07.690Z,39.58
2023-04-18T10:00:36.290Z,41.90
2023-04-18T10:03:08.736Z,40.67
2023-04-18T10:05:39.872Z,41.65
2023-04-18T10:08:08.488Z,39.59
2023-04-18T10:10:37.514Z,40.49
2023-04-18T10:13:07.175Z,41.87
2023-04-18T10:15:35.193Z,40.92
2023-04-18T10:18:08.924Z,39.85
2023-04-18T10:20:37.009Z,38.82
2023-04-18T10:23:32.759Z,42.85
2023-04-18T10:26:01.499Z,41.26
2023-04-18T10:28:55.353Z,40.22
2023-04-18T10:31:28.444Z,39.51
2023-04-18T10:34:05.325Z,38.09
2023-04-18T10:36:34.043Z,39.48
2023-04-18T10:39:21.718Z,38.93
2023-04-18T10:41:51.140Z,37.48
2023-04-18T10:44:20.594Z,36.30
2023-04-18T10:46:48.167Z,37.50
2023-04-18T10:49:28.401Z,36.77
2023-04-18T10:51:59.039Z,38.02
2023-04-18T10:54:48.812Z,37.03
2023-04-18T10:57:16.533Z,37.84
2023-04-18T10:59:48.777Z,36.45
2023-04-18T11:02:27.636Z,34.54
2023-04-18T11:04:58.658Z,33.39
2023-04-18T11:07:42.801Z,31.71
2023-04-18T11:10:11.756Z,31.32
2023-04-18T11:12:41.116Z,30.89
2023-04-18T11:15:12.684Z,30.32
2023-04-18T11:17:40.645Z,31.18
2023-04-18T11:20:10.692Z,30.13
2023-04-18T11:22:45.996Z,30.66
2023-04-18T11:25:14.814Z,30.65
2023-04-18T11:27:47.396Z,32.52
2023-04-18T11:30:15.662Z,29.60
2023-04-18T11:32:43.786Z,29.26
2023-04-18T11:35:12.577Z,31.67
2023-04-18T11:37:41.441Z,30.39
2023-04-18T11:40:09.767Z,31.20
2023-04-18T11:42:38.969Z,31.23
2023-04-18T11:45:13.792Z,29.84
2023-04-18T11:47:42.591Z,29.81
2023-04-18T11:50:12.320Z,31.77
2023-04-18T11:52:41.535Z,31.03
2023-04-18T11:55:14.062Z,27.24
2023-04-18T11:57:42.029Z,24.80
2023-04-18T12:00:10.310Z,26.07
2023-04-18T12:02:42.283Z,25.64
2023-04-18T12:05:10.515Z,25.27
2023-04-18T12:07:44.312Z,23.30
2023-04-18T12:10:28.418Z,24.73
2023-04-18T12:12:59.807Z,24.51
2023-04-18T12:15:28.833Z,28.11
2023-04-18T12:18:01.566Z,30.42
2023-04-18T12:21:02.394Z,30.98
2023-04-18T12:23:40.488Z,29.75
2023-04-18T12:26:17.438Z,29.27
2023-04-18T12:28:46.230Z,29.79
2023-04-18T12:31:14.272Z,30.01
2023-04-18T12:33:41.878Z,28.55
2023-04-18T12:36:10.007Z,30.02
2023-04-18T12:38:38.251Z,27.10
2023-04-18T12:41:06.329Z,26.79
2023-04-18T12:43:34.384Z,27.55
2023-04-18T12:46:02.356Z,26.84
2023-04-18T12:48:30.330Z,27.52
2023-04-18T12:50:58.522Z,27.40
2023-04-18T12:53:26.187Z,28.09
2023-04-18T12:55:54.589Z,27.28
2023-04-18T12:58:23.253Z,26.38
2023-04-18T13:00:51.100Z,28.95
2023-04-18T13:03:19.253Z,30.73
2023-04-18T13:05:47.350Z,29.39
2023-04-18T13:08:18.113Z,29.13
2023-04-18T13:10:46.515Z,30.28
2023-04-18T13:13:14.566Z,28.25
2023-04-18T13:15:42.302Z,28.16
2023-04-18T13:18:10.006Z,29.14
2023-04-18T13:20:38.068Z,26.29
2023-04-18T13:23:05.680Z,26.87
2023-04-18T13:25:33.370Z,27.14
2023-04-18T13:28:01.417Z,27.91
2023-04-18T13:30:29.158Z,26.24
2023-04-18T13:32:58.059Z,27.40
2023-04-18T13:35:25.983Z,27.86
2023-04-18T13:37:57.273Z,27.78
2023-04-18T13:40:25.382Z,29.46
2023-04-18T13:42:53.274Z,28.43
2023-04-18T13:45:21.139Z,28.94
2023-04-18T13:47:48.832Z,29.86
2023-04-18T13:50:17.457Z,28.26
2023-04-18T13:52:48.013Z,27.34
2023-04-18T13:55:15.927Z,28.77
2023-04-18T13:57:43.707Z,30.25
2023-04-18T14:00:11.936Z,29.46
2023-04-18T14:02:39.757Z,28.21
2023-04-18T14:05:08.456Z,29.33
2023-04-18T14:07:36.413Z,28.06
2023-04-18T14:10:04.646Z,28.12
2023-04-18T14:12:32.709Z,29.44
2023-04-18T14:15:00.277Z,28.23
2023-04-18T14:17:27.967Z,27.47
2023-04-18T14:19:56.062Z,27.81
2023-04-18T14:22:23.835Z,28.74
2023-04-18T14:24:51.462Z,27.24
2023-04-18T14:27:19.403Z,28.80
2023-04-18T14:29:47.099Z,28.47
2023-04-18T14:32:15.578Z,27.33
2023-04-18T14:34:43.602Z,29.14
2023-04-18T14:37:11.526Z,28.82
2023-04-18T14:39:39.222Z,30.13
2023-04-18T14:42:07.067Z,31.98
2023-04-18T14:44:34.837Z,32.13
2023-04-18T14:47:02.522Z,31.06
2023-04-18T14:49:39.880Z,29.66
2023-04-18T14:52:07.850Z,29.27
2023-04-18T14:54:36.206Z,28.80
2023-04-18T14:57:03.905Z,30.45
2023-04-18T14:59:31.678Z,31.18
2023-04-18T15:02:00.391Z,31.36
2023-04-18T15:04:28.334Z,31.09
2023-04-18T15:06:56.111Z,30.93
2023-04-18T15:09:24.132Z,29.89
2023-04-18T15:11:52.216Z,30.47
2023-04-18T15:14:19.879Z,31.43
2023-04-18T15:16:50.791Z,30.46
2023-04-18T15:19:18.569Z,29.36
2023-04-18T15:21:46.970Z,31.85
2023-04-18T15:24:15.610Z,29.64
2023-04-18T15:26:43.471Z,29.94
2023-04-18T15:29:11.330Z,29.96
2023-04-18T15:31:39.377Z,31.33
2023-04-18T15:34:07.663Z,32.05
2023-04-18T15:36:35.565Z,30.63
2023-04-18T15:39:03.960Z,31.20
2023-04-18T15:41:36.294Z,30.63
2023-04-18T15:44:05.551Z,32.34
2023-04-18T15:46:34.944Z,30.49
2023-04-18T15:49:02.678Z,29.23
2023-04-18T15:51:30.584Z,29.41
2023-04-18T15:53:58.385Z,30.61
2023-04-18T15:56:26.029Z,29.80
2023-04-18T15:58:57.991Z,30.99
2023-04-18T16:01:26.525Z,31.57
2023-04-18T16:03:54.627Z,30.90
2023-04-18T16:06:22.402Z,32.59
2023-04-18T16:08:50.534Z,33.77
2023-04-18T16:11:20.072Z,33.80
2023-04-18T16:13:47.694Z,33.79
2023-04-18T16:16:15.397Z,32.84
2023-04-18T16:18:43.313Z,33.93
2023-04-18T16:21:14.774Z,33.18
2023-04-18T16:23:43.038Z,33.76
2023-04-18T16:26:10.998Z,33.00
2023-04-18T16:28:38.892Z,34.89
2023-04-18T16:31:06.727Z,35.12
2023-04-18T16:33:34.885Z,35.54
2023-04-18T16:36:02.823Z,35.80
2023-04-18T16:38:30.557Z,37.30
2023-04-18T16:40:58.766Z,36.15
2023-04-18T16:43:26.546Z,36.54
2023-04-18T16:45:54.578Z,36.25
2023-04-18T16:48:22.945Z,37.95
2023-04-18T16:50:50.729Z,36.99
2023-04-18T16:53:18.581Z,37.68
2023-04-18T16:55:46.585Z,38.83
2023-04-18T16:58:14.666Z,39.41
2023-04-18T17:00:43.159Z,39.57
2023-04-18T17:03:11.342Z,39.83
2023-04-18T17:05:39.119Z,40.47
2023-04-18T17:08:07.106Z,41.06
2023-04-18T17:10:35.333Z,41.01
2023-04-18T17:13:03.558Z,41.86
2023-04-18T17:15:31.268Z,43.11
2023-04-18T17:17:59.499Z,41.82
2023-04-18T17:20:27.228Z,40.44
2023-04-18T17:22:55.302Z,42.65
2023-04-18T17:25:23.350Z,43.49
2023-04-18T17:27:51.313Z,42.39
2023-04-18T17:30:19.239Z,42.18
2023-04-18T17:32:47.837Z,44.22
2023-04-18T17:35:15.815Z,45.50
2023-04-18T17:37:43.704Z,44.82
2023-04-18T17:40:12.088Z,46.04
2023-04-18T17:42:40.104Z,46.29
2023-04-18T17:45:09.204Z,45.57
2023-04-18T17:47:37.348Z,46.68
2023-04-18T17:50:07.112Z,45.57
2023-04-18T17:52:35.152Z,45.37
2023-04-18T17:55:06.558Z,46.43
2023-04-18T17:57:34.236Z,46.30
2023-04-18T18:00:02.125Z,46.79
2023-04-18T18:02:40.895Z,46.18
2023-04-18T18:05:10.696Z,46.69
2023-04-18T18:07:39.139Z,47.96
2023-04-18T18:10:17.850Z,48.12
2023-04-18T18:12:45.953Z,48.46
2023-04-18T18:15:13.964Z,48.62
2023-04-18T18:17:41.691Z,48.86
2023-04-18T18:20:10.270Z,48.48
2023-04-18T18:22:38.307Z,49.08
2023-04-18T18:25:06.469Z,48.58
2023-04-18T18:27:35.343Z,47.88
2023-04-18T18:30:04.113Z,47.05
2023-04-18T18:32:32.681Z,47.38
2023-04-18T18:35:01.260Z,45.33
2023-04-18T18:37:29.759Z,47.19
2023-04-18T18:39:57.936Z,46.56
2023-04-18T18:42:26.108Z,44.46
2023-04-18T18:44:54.073Z,45.24
2023-04-18T18:47:22.080Z,46.06
2023-04-18T18:49:50.743Z,46.77
2023-04-18T18:52:19.010Z,47.64
2023-04-18T18:54:46.968Z,47.50
2023-04-18T18:57:15.457Z,45.26
2023-04-18T18:59:43.507Z,44.90
2023-04-18T19:02:11.608Z,44.92
2023-04-18T19:04:41.017Z,44.04
2023-04-18T19:07:09.256Z,44.14
2023-04-18T19:09:37.134Z,43.32
2023-04-18T19:12:07.510Z,43.68
2023-04-18T19:14:35.370Z,43.69
2023-04-18T19:17:03.857Z,43.53
2023-04-18T19:19:32.210Z,43.21
2023-04-18T19:22:00.811Z,43.88
2023-04-18T19:24:28.997Z,43.96
2023-04-18T19:26:57.342Z,45.59
2023-04-18T19:29:25.414Z,44.80
2023-04-18T19:31:53.621Z,44.96
2023-04-18T19:34:22.096Z,45.25
2023-04-18T19:36:50.012Z,44.96
2023-04-18T19:39:18.111Z,46.04
2023-04-18T19:41:47.720Z,45.15
2023-04-18T19:44:15.829Z,45.11
2023-04-18T19:46:43.813Z,45.06
2023-04-18T19:49:12.349Z,45.94
2023-04-18T19:51:40.888Z,46.17
2023-04-18T19:54:08.604Z,47.35
2023-04-18T19:56:36.921Z,46.85
2023-04-18T19:59:04.978Z,46.81
2023-04-18T20:01:34.063Z,46.01
2023-04-18T20:04:02.488Z,46.83
2023-04-18T20:06:30.827Z,46.77
2023-04-18T20:08:59.305Z,46.73
2023-04-18T20:11:27.586Z,46.06
2023-04-18T20:13:55.269Z,46.97
2023-04-18T20:16:23.164Z,47.02
2023-04-18T20:18:52.974Z,46.11
2023-04-18T20:21:22.651Z,46.30
2023-04-18T20:23:50.596Z,46.15
2023-04-18T20:26:18.557Z,45.56
2023-04-18T20:28:46.534Z,47.14
2023-04-18T20:31:14.330Z,45.43
2023-04-18T20:33:42.959Z,47.49
2023-04-18T20:36:11.161Z,47.14
2023-04-18T20:38:39.020Z,46.48
2023-04-18T20:41:07.124Z,46.19
2023-04-18T20:43:34.903Z,45.40
2023-04-18T20:46:03.014Z,45.03
2023-04-18T20:48:31.331Z,44.89
2023-04-18T20:50:59.507Z,46.07
2023-04-18T20:53:27.270Z,45.49
2023-04-18T20:55:55.240Z,46.32
2023-04-18T20:58:22.979Z,46.35
2023-04-18T21:00:50.767Z,46.25
2023-04-18T21:03:19.002Z,46.30
2023-04-18T21:05:46.919Z,46.29
2023-04-18T21:08:14.512Z,46.40
2023-04-18T21:10:42.545Z,47.39
2023-04-18T21:13:10.205Z,47.40
2023-04-18T21:15:37.992Z,47.33
2023-04-18T21:18:06.337Z,47.14
2023-04-18T21:20:34.004Z,47.45
2023-04-18T21:23:01.820Z,46.87
2023-04-18T21:25:29.845Z,47.56
2023-04-18T21:27:58.003Z,47.34
2023-04-18T21:30:25.798Z,48.05
2023-04-18T21:32:53.785Z,48.35
2023-04-18T21:35:24.079Z,48.51
2023-04-18T21:37:52.538Z,48.88
2023-04-18T21:40:20.415Z,49.22
2023-04-18T21:42:49.820Z,49.97
2023-04-18T21:45:17.807Z,50.46
2023-04-18T21:47:45.841Z,50.03
2023-04-18T21:50:13.502Z,49.63
2023-04-18T21:52:41.313Z,49.86
2023-04-18T21:55:09.682Z,50.01
2023-04-18T21:57:37.313Z,50.18
2023-04-18T22:00:06.487Z,50.43
2023-04-18T22:02:36.805Z,50.54
2023-04-18T22:05:05.330Z,51.12
2023-04-18T22:07:34.200Z,50.97
2023-04-18T22:10:03.175Z,51.87
2023-04-18T22:12:31.484Z,51.18
2023-04-18T22:14:59.861Z,51.10
2023-04-18T22:17:27.547Z,50.92
2023-04-18T22:19:55.917Z,50.70
2023-04-18T22:22:23.621Z,51.57
2023-04-18T22:24:51.329Z,50.89
2023-04-18T22:27:19.313Z,51.26
2023-04-18T22:29:46.994Z,51.79
2023-04-18T22:32:14.658Z,51.23
2023-04-18T22:34:42.840Z,51.51
2023-04-18T22:37:13.682Z,51.58
2023-04-18T22:39:41.391Z,51.17
2023-04-18T22:42:09.804Z,52.31
2023-04-18T22:44:37.555Z,51.74
2023-04-18T22:47:05.264Z,51.35
2023-04-18T22:49:33.460Z,51.15
2023-04-18T22:52:01.466Z,51.40
2023-04-18T22:54:29.078Z,51.07
2023-04-18T22:56:57.210Z,51.16
2023-04-18T22:59:25.397Z,50.96
2023-04-18T23:01:53.157Z,51.69
2023-04-18T23:04:21.403Z,52.12
2023-04-18T23:06:49.283Z,51.79
2023-04-18T23:09:17.218Z,51.63
2023-04-18T23:11:46.070Z,51.71
2023-04-18T23:14:14.275Z,51.27
2023-04-18T23:16:43.819Z,52.23
2023-04-18T23:19:12.848Z,52.21
2023-04-18T23:21:40.541Z,51.94
2023-04-18T23:24:08.446Z,52.06
2023-04-18T23:26:36.820Z,52.01
2023-04-18T23:29:04.803Z,52.52
2023-04-18T23:31:32.579Z,51.62
2023-04-18T23:34:01.087Z,52.29
2023-04-18T23:36:28.798Z,53.00
2023-04-18T23:38:56.527Z,52.36
2023-04-18T23:41:24.594Z,51.72
2023-04-18T23:43:52.407Z,52.86
2023-04-18T23:46:20.161Z,52.76
2023-04-18T23:48:48.097Z,52.55
2023-04-18T23:51:15.828Z,52.08
2023-04-18T23:53:43.549Z,53.15
2023-04-18T23:56:11.493Z,53.65
2023-04-18T23:58:39.644Z,54.11
